createdAt,value
2023-03-31T00:00:44.402Z,2000.00
2023-03-31T00:01:44.480Z,1829.00
2023-03-31T00:02:44.682Z,1814.00
2023-03-31T00:03:45.161Z,1939.00
2023-03-31T00:04:44.694Z,2199.00
2023-03-31T00:05:44.747Z,2299.00
2023-03-31T00:06:44.822Z,2448.00
2023-03-31T00:07:44.911Z,2185.00
2023-03-31T00:08:44.994Z,2090.00
2023-03-31T00:09:45.075Z,2199.00
2023-03-31T00:10:45.140Z,2392.00
2023-03-31T00:11:45.227Z,2350.00
2023-03-31T00:12:45.343Z,2167.00
2023-03-31T00:13:45.426Z,2003.00
2023-03-31T00:14:45.484Z,2006.00
2023-03-31T00:15:45.570Z,2296.00
2023-03-31T00:16:45.797Z,2338.00
2023-03-31T00:17:45.845Z,2018.00
2023-03-31T00:18:45.906Z,1786.00
2023-03-31T00:19:46.051Z,1630.00
2023-03-31T00:20:46.192Z,1587.00
2023-03-31T00:21:46.336Z,1572.00
2023-03-31T00:22:46.473Z,1432.00
2023-03-31T00:23:46.586Z,1490.00
2023-03-31T00:24:46.724Z,1407.00
2023-03-31T00:25:46.858Z,1410.00
2023-03-31T00:26:47.006Z,1385.00
2023-03-31T00:27:47.128Z,1407.00
2023-03-31T00:28:47.232Z,1467.00
2023-03-31T00:29:47.343Z,1629.00
2023-03-31T00:30:47.463Z,1647.00
2023-03-31T00:31:47.572Z,1736.00
2023-03-31T00:32:47.700Z,1840.00
2023-03-31T00:33:47.682Z,1999.00
2023-03-31T00:34:47.776Z,2067.00
2023-03-31T00:35:47.872Z,2057.00
2023-03-31T00:36:48.043Z,2012.00
2023-03-31T00:37:47.992Z,1896.00
2023-03-31T00:38:48.088Z,1702.00
2023-03-31T00:39:48.277Z,1725.00
2023-03-31T00:40:48.339Z,1781.00
2023-03-31T00:41:48.467Z,1870.00
2023-03-31T00:42:48.603Z,1976.00
2023-03-31T00:43:48.721Z,2108.00
2023-03-31T00:44:48.815Z,1909.00
2023-03-31T00:45:48.926Z,1697.00
2023-03-31T00:46:49.014Z,1697.00
2023-03-31T00:47:49.164Z,1931.00
2023-03-31T00:48:49.258Z,2202.00
2023-03-31T00:49:49.371Z,2280.00
2023-03-31T00:50:49.514Z,2382.00
2023-03-31T00:51:49.741Z,2159.00
2023-03-31T00:52:49.771Z,2191.00
2023-03-31T00:53:49.919Z,1986.00
2023-03-31T00:54:50.052Z,1727.00
2023-03-31T00:55:50.142Z,1550.00
2023-03-31T00:56:50.257Z,1695.00
2023-03-31T00:57:50.316Z,1581.00
2023-03-31T00:58:50.392Z,1459.00
2023-03-31T00:59:50.454Z,1485.00
2023-03-31T01:00:50.542Z,1263.00
2023-03-31T01:01:50.668Z,1181.00
2023-03-31T01:02:50.725Z,1356.00
2023-03-31T01:03:50.874Z,1630.00
2023-03-31T01:04:50.933Z,1867.00
2023-03-31T01:05:51.028Z,2141.00
2023-03-31T01:06:51.153Z,2200.00
2023-03-31T01:07:51.260Z,2067.00
2023-03-31T01:08:51.359Z,2047.00
2023-03-31T01:09:51.521Z,2044.00
2023-03-31T01:10:51.653Z,1952.00
2023-03-31T01:11:51.790Z,1949.00
2023-03-31T01:12:51.907Z,1633.00
2023-03-31T01:13:52.028Z,1582.00
2023-03-31T01:14:52.137Z,1625.00
2023-03-31T01:15:52.227Z,1949.00
2023-03-31T01:16:52.434Z,2173.00
2023-03-31T01:17:52.526Z,1946.00
2023-03-31T01:18:52.505Z,1726.00
2023-03-31T01:19:52.591Z,1802.00
2023-03-31T01:20:52.667Z,1990.00
2023-03-31T01:21:52.767Z,2224.00
2023-03-31T01:22:52.919Z,2230.00
2023-03-31T01:23:53.031Z,1950.00
2023-03-31T01:24:53.147Z,1820.00
2023-03-31T01:25:53.268Z,1910.00
2023-03-31T01:26:53.357Z,1959.00
2023-03-31T01:27:53.481Z,1882.00
2023-03-31T01:28:53.600Z,2123.00
2023-03-31T01:29:53.723Z,1839.00
2023-03-31T01:30:53.866Z,1650.00
2023-03-31T01:31:54.018Z,1528.00
2023-03-31T01:32:54.164Z,1492.00
2023-03-31T01:33:54.258Z,1412.00
2023-03-31T01:34:54.402Z,1443.00
2023-03-31T01:35:54.583Z,1558.00
2023-03-31T01:36:54.675Z,1764.00
2023-03-31T01:37:54.805Z,1812.00
2023-03-31T01:38:54.915Z,1906.00
2023-03-31T01:39:55.069Z,2102.00
2023-03-31T01:40:55.209Z,2236.00
2023-03-31T01:41:55.322Z,2353.00
2023-03-31T01:42:55.446Z,2512.00
2023-03-31T01:43:55.547Z,2546.00
2023-03-31T01:44:55.675Z,2130.00
2023-03-31T01:45:55.803Z,2051.00
2023-03-31T01:46:55.866Z,1822.00
2023-03-31T01:47:55.998Z,1604.00
2023-03-31T01:48:56.051Z,1799.00
2023-03-31T01:49:56.140Z,2191.00
2023-03-31T01:50:56.236Z,2447.00
2023-03-31T01:51:56.346Z,2482.00
2023-03-31T01:52:56.419Z,2582.00
2023-03-31T01:53:56.496Z,2734.00
2023-03-31T01:54:56.591Z,2887.00
2023-03-31T01:55:56.862Z,2827.00
2023-03-31T01:56:56.846Z,2315.00
2023-03-31T01:57:56.930Z,2034.00
2023-03-31T01:58:57.027Z,1938.00
2023-03-31T01:59:57.147Z,1811.00
2023-03-31T02:00:57.417Z,1829.00
2023-03-31T02:01:57.360Z,1835.00
2023-03-31T02:02:57.464Z,1631.00
2023-03-31T02:03:57.553Z,1753.00
2023-03-31T02:04:57.565Z,2070.00
2023-03-31T02:05:57.633Z,2388.00
2023-03-31T02:06:57.709Z,2652.00
2023-03-31T02:07:57.848Z,2879.00
2023-03-31T02:08:57.976Z,3063.00
2023-03-31T02:09:58.066Z,3125.00
2023-03-31T02:10:58.191Z,3198.00
2023-03-31T02:11:58.302Z,3261.00
2023-03-31T02:12:58.346Z,3238.00
2023-03-31T02:13:58.415Z,3214.00
2023-03-31T02:14:58.479Z,3192.00
2023-03-31T02:15:58.573Z,3220.00
2023-03-31T02:16:58.760Z,3226.00
2023-03-31T02:17:58.785Z,3175.00
2023-03-31T02:18:58.830Z,3128.00
2023-03-31T02:19:58.974Z,3077.00
2023-03-31T02:20:59.091Z,3113.00
2023-03-31T02:21:59.254Z,3123.00
2023-03-31T02:22:59.326Z,3168.00
2023-03-31T02:23:59.430Z,3230.00
2023-03-31T02:24:59.532Z,3202.00
2023-03-31T02:25:59.607Z,3217.00
2023-03-31T02:26:59.692Z,3208.00
2023-03-31T02:27:59.763Z,3182.00
2023-03-31T02:28:59.829Z,3183.00
2023-03-31T02:29:59.888Z,3264.00
2023-03-31T02:30:59.943Z,3352.00
2023-03-31T02:32:00.140Z,3403.00
2023-03-31T02:33:00.150Z,3430.00
2023-03-31T02:34:00.157Z,3458.00
2023-03-31T02:35:00.221Z,3568.00
2023-03-31T02:36:00.348Z,3721.00
2023-03-31T02:37:00.368Z,3716.00
2023-03-31T02:38:00.461Z,3817.00
2023-03-31T02:39:00.538Z,3884.00
2023-03-31T02:40:00.627Z,3879.00
2023-03-31T02:41:00.699Z,3834.00
2023-03-31T02:42:00.775Z,3814.00
2023-03-31T02:43:00.839Z,3697.00
2023-03-31T02:44:00.902Z,3548.00
2023-03-31T02:45:01.064Z,3556.00
2023-03-31T02:46:01.184Z,3573.00
2023-03-31T02:47:01.201Z,3547.00
2023-03-31T02:48:01.383Z,3538.00
2023-03-31T02:49:01.413Z,3493.00
2023-03-31T02:50:01.516Z,3436.00
2023-03-31T02:51:01.616Z,3446.00
2023-03-31T02:52:01.710Z,3450.00
2023-03-31T02:53:01.824Z,3483.00
2023-03-31T02:54:01.917Z,3561.00
2023-03-31T02:55:01.988Z,3689.00
2023-03-31T02:56:02.072Z,3819.00
2023-03-31T02:57:02.154Z,3870.00
2023-03-31T02:58:02.229Z,3965.00
2023-03-31T02:59:02.309Z,4129.00
2023-03-31T03:00:02.383Z,4185.00
2023-03-31T03:01:02.473Z,4152.00
2023-03-31T03:02:02.542Z,4118.00
2023-03-31T03:03:02.713Z,4135.00
2023-03-31T03:04:02.641Z,4184.00
2023-03-31T03:05:02.689Z,4215.00
2023-03-31T03:06:04.676Z,4214.00
2023-03-31T03:07:02.994Z,4169.00
2023-03-31T03:08:03.049Z,4138.00
2023-03-31T03:09:03.118Z,4130.00
2023-03-31T03:10:03.197Z,4061.00
2023-03-31T03:11:03.271Z,4004.00
2023-03-31T03:12:03.333Z,3937.00
2023-03-31T03:13:03.417Z,3912.00
2023-03-31T03:14:03.498Z,3953.00
2023-03-31T03:15:03.565Z,4020.00
2023-03-31T03:16:03.867Z,4140.00
2023-03-31T03:17:03.772Z,4188.00
2023-03-31T03:18:03.817Z,4134.00
2023-03-31T03:19:04.016Z,4070.00
2023-03-31T03:20:03.928Z,4031.00
2023-03-31T03:21:04.010Z,4033.00
2023-03-31T03:22:04.073Z,4067.00
2023-03-31T03:23:04.841Z,4148.00
2023-03-31T03:24:04.186Z,4180.00
2023-03-31T03:25:04.255Z,4200.00
2023-03-31T03:26:04.441Z,4225.00
2023-03-31T03:27:04.398Z,4217.00
2023-03-31T03:28:04.460Z,4161.00
2023-03-31T03:29:04.516Z,4129.00
2023-03-31T03:30:04.586Z,4087.00
2023-03-31T03:31:04.680Z,4047.00
2023-03-31T03:32:04.695Z,4043.00
2023-03-31T03:33:04.765Z,4058.00
2023-03-31T03:34:04.827Z,4113.00
2023-03-31T03:35:04.932Z,4117.00
2023-03-31T03:36:05.149Z,4185.00
2023-03-31T03:37:05.077Z,4243.00
2023-03-31T03:38:05.110Z,4301.00
2023-03-31T03:39:05.186Z,4319.00
2023-03-31T03:40:05.268Z,4310.00
2023-03-31T03:41:05.343Z,4320.00
2023-03-31T03:42:05.417Z,4356.00
2023-03-31T03:43:05.486Z,4407.00
2023-03-31T03:44:05.646Z,4420.00
2023-03-31T03:45:05.664Z,4399.00
2023-03-31T03:46:06.109Z,4368.00
2023-03-31T03:47:05.799Z,4279.00
2023-03-31T03:48:05.885Z,4202.00
2023-03-31T03:49:05.936Z,4118.00
2023-03-31T03:50:06.053Z,4046.00
2023-03-31T03:51:06.128Z,4009.00
2023-03-31T03:52:06.220Z,3964.00
2023-03-31T03:53:06.285Z,3929.00
2023-03-31T03:54:06.371Z,3963.00
2023-03-31T03:55:06.423Z,4006.00
2023-03-31T03:56:06.780Z,4080.00
2023-03-31T03:57:06.600Z,4147.00
2023-03-31T03:58:06.646Z,4188.00
2023-03-31T03:59:06.709Z,4211.00
2023-03-31T04:00:06.774Z,4197.00
2023-03-31T04:01:06.842Z,4131.00
2023-03-31T04:02:06.922Z,4102.00
2023-03-31T04:03:07.038Z,4031.00
2023-03-31T04:04:07.054Z,4024.00
2023-03-31T04:05:07.169Z,4012.00
2023-03-31T04:06:07.360Z,4028.00
2023-03-31T04:07:07.286Z,4021.00
2023-03-31T04:08:07.357Z,4093.00
2023-03-31T04:09:07.436Z,4200.00
2023-03-31T04:10:07.505Z,4193.00
2023-03-31T04:11:07.580Z,4130.00
2023-03-31T04:12:07.688Z,4060.00
2023-03-31T04:13:07.765Z,4000.00
2023-03-31T04:14:07.843Z,4017.00
2023-03-31T04:15:07.923Z,4032.00
2023-03-31T04:16:08.138Z,4079.00
2023-03-31T04:17:08.120Z,4122.00
2023-03-31T04:18:08.295Z,4127.00
2023-03-31T04:19:08.328Z,4065.00
2023-03-31T04:20:08.410Z,4044.00
2023-03-31T04:21:08.497Z,4063.00
2023-03-31T04:22:08.585Z,4034.00
2023-03-31T04:23:08.681Z,4059.00
2023-03-31T04:24:08.775Z,4088.00
2023-03-31T04:25:08.868Z,4127.00
2023-03-31T04:26:09.066Z,4114.00
2023-03-31T04:27:09.084Z,4128.00
2023-03-31T04:28:09.204Z,4014.00
2023-03-31T04:29:09.325Z,3696.00
2023-03-31T04:30:09.425Z,3632.00
2023-03-31T04:31:09.563Z,3684.00
2023-03-31T04:32:09.741Z,3754.00
2023-03-31T04:33:09.816Z,3908.00
2023-03-31T04:34:09.864Z,3952.00
2023-03-31T04:35:09.959Z,3985.00
2023-03-31T04:36:10.219Z,3992.00
2023-03-31T04:37:10.142Z,3918.00
2023-03-31T04:38:10.222Z,3907.00
2023-03-31T04:39:10.392Z,3951.00
2023-03-31T04:40:10.486Z,3969.00
2023-03-31T04:41:10.557Z,4001.00
2023-03-31T04:42:10.655Z,3981.00
2023-03-31T04:43:10.750Z,4020.00
2023-03-31T04:44:10.848Z,3999.00
2023-03-31T04:45:10.936Z,3866.00
2023-03-31T04:46:11.097Z,3693.00
2023-03-31T04:47:11.131Z,3604.00
2023-03-31T04:48:11.230Z,3566.00
2023-03-31T04:49:11.332Z,3658.00
2023-03-31T04:50:15.311Z,3777.00
2023-03-31T04:51:11.491Z,3780.00
2023-03-31T04:52:11.561Z,3806.00
2023-03-31T04:53:11.618Z,3878.00
2023-03-31T04:54:11.694Z,3990.00
2023-03-31T04:55:11.771Z,4091.00
2023-03-31T04:56:11.831Z,4035.00
2023-03-31T04:57:11.912Z,4052.00
2023-03-31T04:58:11.966Z,4089.00
2023-03-31T04:59:12.043Z,4047.00
2023-03-31T05:00:12.101Z,4032.00
2023-03-31T05:01:12.171Z,4049.00
2023-03-31T05:02:12.307Z,4141.00
2023-03-31T05:03:12.419Z,4209.00
2023-03-31T05:04:12.382Z,4221.00
2023-03-31T05:05:12.461Z,4169.00
2023-03-31T05:06:12.523Z,4141.00
2023-03-31T05:07:12.593Z,4177.00
2023-03-31T05:08:12.665Z,4224.00
2023-03-31T05:09:12.741Z,4263.00
2023-03-31T05:10:12.817Z,4267.00
2023-03-31T05:11:12.869Z,4283.00
2023-03-31T05:12:12.943Z,4328.00
2023-03-31T05:13:13.014Z,4355.00
2023-03-31T05:14:13.097Z,4400.00
2023-03-31T05:15:13.209Z,4428.00
2023-03-31T05:16:13.309Z,4529.00
2023-03-31T05:17:13.388Z,4630.00
2023-03-31T05:18:13.480Z,4686.00
2023-03-31T05:19:13.635Z,4733.00
2023-03-31T05:20:13.811Z,4676.00
2023-03-31T05:21:13.898Z,4619.00
2023-03-31T05:22:13.992Z,4560.00
2023-03-31T05:23:14.092Z,4549.00
2023-03-31T05:24:14.168Z,4472.00
2023-03-31T05:25:14.255Z,4428.00
2023-03-31T05:26:14.872Z,4407.00
2023-03-31T05:27:14.470Z,4396.00
2023-03-31T05:28:14.502Z,4384.00
2023-03-31T05:29:14.601Z,4335.00
2023-03-31T05:30:14.685Z,4365.00
2023-03-31T05:31:14.792Z,4407.00
2023-03-31T05:32:14.837Z,4463.00
2023-03-31T05:33:14.904Z,4490.00
2023-03-31T05:34:14.986Z,4503.00
2023-03-31T05:35:15.049Z,4516.00
2023-03-31T05:36:15.150Z,4538.00
2023-03-31T05:37:15.191Z,4526.00
2023-03-31T05:38:15.269Z,4469.00
2023-03-31T05:39:15.334Z,4463.00
2023-03-31T05:40:15.401Z,4448.00
2023-03-31T05:41:15.483Z,4395.00
2023-03-31T05:42:15.552Z,4443.00
2023-03-31T05:43:15.630Z,4487.00
2023-03-31T05:44:15.703Z,4516.00
2023-03-31T05:45:15.952Z,4525.00
2023-03-31T05:46:15.915Z,4496.00
2023-03-31T05:47:15.945Z,4458.00
2023-03-31T05:48:16.017Z,4403.00
2023-03-31T05:49:16.089Z,4382.00
2023-03-31T05:50:16.158Z,4386.00
2023-03-31T05:51:16.226Z,4401.00
2023-03-31T05:52:16.302Z,4457.00
2023-03-31T05:53:16.386Z,4482.00
2023-03-31T05:54:16.467Z,4445.00
2023-03-31T05:55:16.515Z,4427.00
2023-03-31T05:56:16.611Z,4412.00
2023-03-31T05:57:16.706Z,4457.00
2023-03-31T05:58:16.770Z,4437.00
2023-03-31T05:59:16.860Z,4409.00
2023-03-31T06:00:16.935Z,4376.00
2023-03-31T06:02:17.150Z,4311.00
2023-03-31T06:03:17.170Z,4355.00
2023-03-31T06:04:17.302Z,4462.00
2023-03-31T06:05:17.331Z,4526.00
2023-03-31T06:06:17.391Z,4565.00
2023-03-31T06:07:17.470Z,4607.00
2023-03-31T06:08:17.542Z,4591.00
2023-03-31T06:09:17.648Z,4617.00
2023-03-31T06:10:17.676Z,4618.00
2023-03-31T06:11:18.295Z,4585.00
2023-03-31T06:12:17.790Z,4587.00
2023-03-31T06:13:17.879Z,4588.00
2023-03-31T06:14:17.931Z,4528.00
2023-03-31T06:15:17.994Z,4493.00
2023-03-31T06:16:18.065Z,4476.00
2023-03-31T06:17:18.880Z,4441.00
2023-03-31T06:18:18.387Z,4410.00
2023-03-31T06:19:18.229Z,4433.00
2023-03-31T06:20:27.313Z,4442.00
2023-03-31T06:21:19.344Z,4443.00
2023-03-31T06:22:18.407Z,4446.00
2023-03-31T06:23:18.481Z,4432.00
2023-03-31T06:24:18.525Z,4441.00
2023-03-31T06:25:18.605Z,4444.00
2023-03-31T06:26:18.690Z,4467.00
2023-03-31T06:27:18.877Z,4095.00
2023-03-31T06:28:18.804Z,3670.00
2023-03-31T06:29:18.865Z,3285.00
2023-03-31T06:30:18.940Z,3090.00
2023-03-31T06:31:19.107Z,2872.00
2023-03-31T06:32:19.071Z,2636.00
2023-03-31T06:33:19.160Z,2585.00
2023-03-31T06:34:21.331Z,2579.00
2023-03-31T06:35:20.378Z,2100.00
2023-03-31T06:36:19.689Z,1833.00
2023-03-31T06:37:19.677Z,1630.00
2023-03-31T06:38:19.799Z,1673.00
2023-03-31T06:39:19.923Z,1771.00
2023-03-31T06:40:20.043Z,1998.00
2023-03-31T06:41:20.151Z,2381.00
2023-03-31T06:42:20.259Z,2594.00
2023-03-31T06:43:20.370Z,3088.00
2023-03-31T06:44:20.453Z,3602.00
2023-03-31T06:45:20.585Z,3912.00
2023-03-31T06:46:20.676Z,4151.00
2023-03-31T06:47:20.721Z,4242.00
2023-03-31T06:48:20.734Z,3960.00
2023-03-31T06:49:20.788Z,3418.00
2023-03-31T06:50:20.839Z,3085.00
2023-03-31T06:51:20.921Z,2990.00
2023-03-31T06:52:21.072Z,2950.00
2023-03-31T06:53:21.051Z,2613.00
2023-03-31T06:54:21.126Z,2281.00
2023-03-31T06:55:21.202Z,1922.00
2023-03-31T06:56:21.288Z,1851.00
2023-03-31T06:57:21.436Z,2204.00
2023-03-31T06:58:21.493Z,2318.00
2023-03-31T06:59:21.560Z,2504.00
2023-03-31T07:00:23.299Z,2855.00
2023-03-31T07:01:21.852Z,3105.00
2023-03-31T07:02:21.866Z,3414.00
2023-03-31T07:03:22.097Z,3653.00
2023-03-31T07:04:22.002Z,3880.00
2023-03-31T07:05:22.056Z,3865.00
2023-03-31T07:06:22.121Z,3703.00
2023-03-31T07:07:22.172Z,3710.00
2023-03-31T07:08:22.236Z,3795.00
2023-03-31T07:09:22.320Z,3903.00
2023-03-31T07:10:22.364Z,3975.00
2023-03-31T07:11:22.421Z,4094.00
2023-03-31T07:12:22.523Z,4159.00
2023-03-31T07:13:22.595Z,4172.00
2023-03-31T07:14:22.696Z,4202.00
2023-03-31T07:15:22.811Z,4299.00
2023-03-31T07:16:22.954Z,4417.00
2023-03-31T07:17:23.052Z,4575.00
2023-03-31T07:18:23.152Z,4638.00
2023-03-31T07:19:23.272Z,4484.00
2023-03-31T07:20:23.376Z,4460.00
2023-03-31T07:21:23.479Z,4407.00
2023-03-31T07:22:23.598Z,4255.00
2023-03-31T07:23:23.707Z,4130.00
2023-03-31T07:24:23.768Z,4021.00
2023-03-31T07:25:23.847Z,4219.00
2023-03-31T07:26:23.917Z,4421.00
2023-03-31T07:27:26.066Z,4534.00
2023-03-31T07:28:24.087Z,4452.00
2023-03-31T07:29:24.156Z,4448.00
2023-03-31T07:30:24.252Z,4495.00
2023-03-31T07:31:24.385Z,4459.00
2023-03-31T07:32:28.473Z,4341.00
2023-03-31T07:33:24.528Z,4317.00
2023-03-31T07:34:24.566Z,4275.00
2023-03-31T07:35:24.706Z,4275.00
2023-03-31T07:36:24.731Z,4252.00
2023-03-31T07:37:24.740Z,4223.00
2023-03-31T07:38:24.804Z,4203.00
2023-03-31T07:39:24.854Z,4206.00
2023-03-31T07:40:24.979Z,4215.00
2023-03-31T07:41:24.949Z,4242.00
2023-03-31T07:42:24.996Z,4171.00
2023-03-31T07:43:25.063Z,4162.00
2023-03-31T07:44:25.124Z,4191.00
2023-03-31T07:45:25.154Z,4249.00
2023-03-31T07:46:25.264Z,4368.00
2023-03-31T07:47:25.294Z,4381.00
2023-03-31T07:48:25.507Z,4420.00
2023-03-31T07:49:25.472Z,4476.00
2023-03-31T07:50:25.612Z,4394.00
2023-03-31T07:51:25.686Z,4336.00
2023-03-31T07:52:25.807Z,4196.00
2023-03-31T07:53:25.913Z,4094.00
2023-03-31T07:54:26.022Z,4061.00
2023-03-31T07:55:26.818Z,4082.00
2023-03-31T07:56:26.209Z,4106.00
2023-03-31T07:57:26.370Z,4194.00
2023-03-31T07:58:26.401Z,4206.00
2023-03-31T07:59:26.496Z,4214.00
2023-03-31T08:00:26.594Z,4246.00
2023-03-31T08:01:27.357Z,4303.00
2023-03-31T08:02:26.923Z,4481.00
2023-03-31T08:03:26.853Z,4508.00
2023-03-31T08:04:26.992Z,4197.00
2023-03-31T08:05:27.062Z,3900.00
2023-03-31T08:06:27.158Z,3878.00
2023-03-31T08:07:27.386Z,3744.00
2023-03-31T08:08:27.335Z,3123.00
2023-03-31T08:09:27.461Z,2442.00
2023-03-31T08:10:27.603Z,2171.00
2023-03-31T08:11:27.724Z,2075.00
2023-03-31T08:12:27.802Z,2142.00
2023-03-31T08:13:27.885Z,2521.00
2023-03-31T08:14:40.050Z,2558.00
2023-03-31T08:15:29.038Z,2280.00
2023-03-31T08:16:28.134Z,1906.00
2023-03-31T08:17:28.184Z,1509.00
2023-03-31T08:18:28.194Z,1164.00
2023-03-31T08:19:28.253Z,1047.00
2023-03-31T08:20:28.324Z,1012.00
2023-03-31T08:21:28.369Z,1543.00
2023-03-31T08:22:28.419Z,1889.00
2023-03-31T08:23:28.463Z,2164.00
2023-03-31T08:24:28.530Z,2528.00
2023-03-31T08:25:28.640Z,2854.00
2023-03-31T08:26:28.736Z,3065.00
2023-03-31T08:27:28.858Z,2898.00
2023-03-31T08:28:28.928Z,2663.00
2023-03-31T08:29:29.018Z,2564.00
2023-03-31T08:30:29.109Z,2952.00
2023-03-31T08:31:30.162Z,2964.00
2023-03-31T08:32:29.242Z,3054.00
2023-03-31T08:33:29.203Z,3260.00
2023-03-31T08:34:29.420Z,3524.00
2023-03-31T08:35:29.267Z,3209.00
2023-03-31T08:36:29.322Z,3655.00
2023-03-31T08:37:29.443Z,3938.00
2023-03-31T08:38:29.424Z,3498.00
2023-03-31T08:39:29.549Z,2590.00
2023-03-31T08:40:29.501Z,2071.00
2023-03-31T08:41:29.538Z,1650.00
2023-03-31T08:42:29.601Z,1292.00
2023-03-31T08:43:30.658Z,1201.00
2023-03-31T08:44:29.637Z,1218.00
2023-03-31T08:45:29.725Z,1086.00
2023-03-31T08:46:29.773Z,1045.00
2023-03-31T08:47:29.762Z,897.00
2023-03-31T08:48:29.782Z,875.00
2023-03-31T08:49:29.788Z,1451.00
2023-03-31T08:50:29.792Z,1312.00
2023-03-31T08:51:30.445Z,1345.00
2023-03-31T08:52:30.407Z,1206.00
2023-03-31T08:53:29.975Z,871.00
2023-03-31T08:54:30.016Z,641.00
2023-03-31T08:55:30.140Z,664.00
2023-03-31T08:56:30.227Z,684.00
2023-03-31T08:57:30.239Z,736.00
2023-03-31T08:58:30.318Z,710.00
2023-03-31T08:59:30.443Z,690.00
2023-03-31T09:00:31.564Z,755.00
2023-03-31T09:01:32.545Z,882.00
2023-03-31T09:02:31.795Z,889.00
2023-03-31T09:03:30.677Z,952.00
2023-03-31T09:04:30.658Z,1101.00
2023-03-31T09:05:30.677Z,1391.00
2023-03-31T09:06:31.431Z,1837.00
2023-03-31T09:07:31.428Z,1996.00
2023-03-31T09:08:30.768Z,2125.00
2023-03-31T09:09:30.834Z,2239.00
2023-03-31T09:10:30.820Z,2182.00
2023-03-31T09:11:30.884Z,2267.00
2023-03-31T09:12:30.853Z,2376.00
2023-03-31T09:13:30.930Z,2489.00
2023-03-31T09:14:30.880Z,2565.00
2023-03-31T09:15:30.916Z,2196.00
2023-03-31T09:16:31.997Z,2009.00
2023-03-31T09:17:30.976Z,1856.00
2023-03-31T09:18:30.967Z,1710.00
2023-03-31T09:19:30.993Z,1488.00
2023-03-31T09:20:31.050Z,1155.00
2023-03-31T09:21:31.094Z,965.00
2023-03-31T09:22:31.144Z,783.00
2023-03-31T09:23:31.199Z,675.00
2023-03-31T09:24:32.772Z,595.00
2023-03-31T09:25:31.335Z,533.00
2023-03-31T09:26:31.429Z,514.00
2023-03-31T09:27:31.562Z,500.00
2023-03-31T09:28:31.672Z,505.00
2023-03-31T09:29:31.786Z,502.00
2023-03-31T09:30:31.853Z,542.00
2023-03-31T09:31:31.994Z,529.00
2023-03-31T09:32:32.257Z,542.00
2023-03-31T09:33:32.847Z,550.00
2023-03-31T09:34:32.286Z,572.00
2023-03-31T09:35:32.435Z,539.00
2023-03-31T09:36:32.512Z,535.00
2023-03-31T09:37:32.636Z,581.00
2023-03-31T09:38:32.728Z,544.00
2023-03-31T09:39:32.813Z,512.00
2023-03-31T09:40:32.905Z,519.00
2023-03-31T09:41:34.218Z,561.00
2023-03-31T09:42:33.047Z,577.00
2023-03-31T09:43:33.110Z,583.00
2023-03-31T09:44:33.145Z,646.00
2023-03-31T09:45:33.212Z,644.00
2023-03-31T09:46:33.277Z,598.00
2023-03-31T09:47:33.361Z,596.00
2023-03-31T09:48:33.327Z,597.00
2023-03-31T09:49:33.403Z,596.00
2023-03-31T09:50:33.485Z,664.00
2023-03-31T09:51:33.565Z,776.00
2023-03-31T09:52:33.649Z,700.00
2023-03-31T09:53:33.700Z,810.00
2023-03-31T09:54:34.437Z,893.00
2023-03-31T09:55:40.229Z,1028.00
2023-03-31T09:56:34.876Z,1034.00
2023-03-31T09:57:34.378Z,1076.00
2023-03-31T09:58:34.893Z,1041.00
2023-03-31T09:59:33.926Z,1061.00
2023-03-31T10:00:33.930Z,761.00
2023-03-31T10:01:33.978Z,575.00
2023-03-31T10:02:33.990Z,1267.00
2023-03-31T10:03:33.998Z,2014.00
2023-03-31T10:04:34.061Z,2665.00
2023-03-31T10:05:34.992Z,2666.00
2023-03-31T10:06:34.006Z,2703.00
2023-03-31T10:07:34.028Z,2805.00
2023-03-31T10:08:34.042Z,2856.00
2023-03-31T10:09:34.049Z,2536.00
2023-03-31T10:10:34.049Z,2667.00
2023-03-31T10:11:34.066Z,2890.00
2023-03-31T10:12:34.081Z,2946.00
2023-03-31T10:13:34.084Z,2769.00
2023-03-31T10:14:34.155Z,2599.00
2023-03-31T10:15:34.237Z,2636.00
2023-03-31T10:16:34.932Z,2597.00
2023-03-31T10:17:46.943Z,2378.00
2023-03-31T10:18:35.397Z,2384.00
2023-03-31T10:19:34.390Z,1873.00
2023-03-31T10:20:34.422Z,1831.00
2023-03-31T10:21:34.390Z,1808.00
2023-03-31T10:22:34.410Z,2427.00
2023-03-31T10:23:34.425Z,2819.00
2023-03-31T10:24:34.456Z,2382.00
2023-03-31T10:25:34.482Z,892.00
2023-03-31T10:26:34.493Z,636.00
2023-03-31T10:27:34.522Z,576.00
2023-03-31T10:28:34.607Z,583.00
2023-03-31T10:29:34.683Z,499.00
2023-03-31T10:30:34.765Z,414.00
2023-03-31T10:31:34.869Z,450.00
2023-03-31T10:32:34.955Z,434.00
2023-03-31T10:33:35.140Z,454.00
2023-03-31T10:34:35.113Z,479.00
2023-03-31T10:35:35.216Z,529.00
2023-03-31T10:36:35.278Z,548.00
2023-03-31T10:37:35.313Z,559.00
2023-03-31T10:38:35.360Z,563.00
2023-03-31T10:39:35.411Z,610.00
2023-03-31T10:40:35.568Z,703.00
2023-03-31T10:41:35.482Z,621.00
2023-03-31T10:42:35.577Z,514.00
2023-03-31T10:43:35.800Z,546.00
2023-03-31T10:44:35.692Z,572.00
2023-03-31T10:45:37.843Z,618.00
2023-03-31T10:46:35.774Z,631.00
2023-03-31T10:47:35.784Z,632.00
2023-03-31T10:48:35.771Z,663.00
2023-03-31T10:49:35.790Z,762.00
2023-03-31T10:50:35.815Z,1006.00
2023-03-31T10:51:35.942Z,917.00
2023-03-31T10:52:35.841Z,836.00
2023-03-31T10:53:35.897Z,778.00
2023-03-31T10:54:35.895Z,799.00
2023-03-31T10:55:35.935Z,789.00
2023-03-31T10:56:35.943Z,814.00
2023-03-31T10:57:36.012Z,990.00
2023-03-31T10:58:35.960Z,1113.00
2023-03-31T10:59:35.982Z,932.00
2023-03-31T11:00:35.998Z,1042.00
2023-03-31T11:01:36.035Z,1256.00
2023-03-31T11:02:36.176Z,1288.00
2023-03-31T11:03:36.129Z,748.00
2023-03-31T11:04:36.051Z,639.00
2023-03-31T11:05:36.062Z,675.00
2023-03-31T11:06:36.083Z,814.00
2023-03-31T11:07:36.103Z,993.00
2023-03-31T11:08:36.122Z,1090.00
2023-03-31T11:09:36.128Z,1205.00
2023-03-31T11:10:36.144Z,989.00
2023-03-31T11:11:36.177Z,997.00
2023-03-31T11:12:36.176Z,1089.00
2023-03-31T11:13:36.240Z,1154.00
2023-03-31T11:14:36.199Z,1329.00
2023-03-31T11:15:36.268Z,1393.00
2023-03-31T11:16:36.399Z,1269.00
2023-03-31T11:17:36.267Z,758.00
2023-03-31T11:18:36.313Z,526.00
2023-03-31T11:19:36.289Z,464.00
2023-03-31T11:20:36.319Z,480.00
2023-03-31T11:21:36.442Z,453.00
2023-03-31T11:22:36.347Z,623.00
2023-03-31T11:23:36.370Z,771.00
2023-03-31T11:24:36.376Z,838.00
2023-03-31T11:25:36.408Z,1042.00
2023-03-31T11:26:36.437Z,1074.00
2023-03-31T11:27:36.438Z,686.00
2023-03-31T11:28:36.450Z,921.00
2023-03-31T11:29:36.469Z,1191.00
2023-03-31T11:30:36.477Z,1128.00
2023-03-31T11:31:36.530Z,1015.00
2023-03-31T11:32:36.530Z,1152.00
2023-03-31T11:33:36.564Z,1368.00
2023-03-31T11:34:36.535Z,1150.00
2023-03-31T11:35:36.567Z,1083.00
2023-03-31T11:36:36.564Z,1180.00
2023-03-31T11:37:36.572Z,1376.00
2023-03-31T11:38:36.589Z,1779.00
2023-03-31T11:39:36.620Z,2427.00
2023-03-31T11:40:36.706Z,3023.00
2023-03-31T11:41:36.782Z,3470.00
2023-03-31T11:42:36.853Z,3732.00
2023-03-31T11:43:36.910Z,4036.00
2023-03-31T11:44:36.989Z,4208.00
2023-03-31T11:45:37.066Z,4389.00
2023-03-31T11:46:37.228Z,4537.00
2023-03-31T11:47:37.233Z,4400.00
2023-03-31T11:48:37.268Z,4101.00
2023-03-31T11:49:37.321Z,3942.00
2023-03-31T11:50:37.400Z,3909.00
2023-03-31T11:51:37.469Z,3939.00
2023-03-31T11:52:37.521Z,4032.00
2023-03-31T11:53:37.593Z,4148.00
2023-03-31T11:54:37.671Z,4213.00
2023-03-31T11:55:37.719Z,4288.00
2023-03-31T11:56:37.803Z,4306.00
2023-03-31T11:57:37.851Z,4093.00
2023-03-31T11:58:37.921Z,3759.00
2023-03-31T11:59:38.000Z,3560.00
2023-03-31T12:00:38.063Z,3541.00
2023-03-31T12:01:38.150Z,3636.00
2023-03-31T12:02:38.236Z,3873.00
2023-03-31T12:03:38.434Z,4024.00
2023-03-31T12:04:38.571Z,4106.00
2023-03-31T12:05:38.779Z,4261.00
2023-03-31T12:06:38.925Z,4345.00
2023-03-31T12:07:39.012Z,4163.00
2023-03-31T12:08:39.093Z,3984.00
2023-03-31T12:09:39.187Z,3888.00
2023-03-31T12:10:39.262Z,3895.00